70.1F
Current conditions from King Hill
Updated every 5 minutes
 
  Thursday June 20, 2024

Observations for Westford

Westford

43° 37' 38"N, 73° 02' 30"W, Elevation 850 ft.
Eastern Time

Hourly observations for the last 72 hours

Date Time Temperature (F) Humi-
dity

(%)
Wind
(mph)
Pressure Rain (in) Sun
(W/m2)
UV ET
(in)
Air Dew 6 Hour 1 Hr 3 Hr 6 Hr Day
Alt
(in)
Sea
Level

(mb)
Max Min
20 19:00 71.0 69.5 95 W 4 G 9 30.17 1021.8 0.07 1.46 0 0.0 0.103
20 18:00 72.4 71.5 97 E 1 G 4 30.14 1020.8 1.39 448 0.0 0.098
20 17:00 69.9 68.7 96 SSE 0 G 6 30.14 1020.6 0.24 1.15 1.39 102 0.0 0.097
20 16:00 70.1 68.6 95 S 2 G 12 30.15 1020.9 0.81 1.15 7 0.0 0.097
20 15:00 74.4 71.3 90 W 1 G 13 30.13 1020.3 0.10 0.34 5 0.0 0.089
20 14:00 74.0 69.2 89.2 74.0 85 E 1 G 18 30.15 1021.0 0.24 0.24 0.24 0.24 125 0.0 0.080
20 13:00 88.5 78.3 72 WSW 4 G 11 30.15 1021.1 0.00 882 0.0 0.059
20 12:00 87.9 79.4 76 SW 2 G 9 30.16 1021.4 0.00 824 0.0 0.038
20 11:00 85.8 78.2 78 SW 4 G 10 30.17 1021.6 0.00 652 0.0 0.019
20 10:00 81.1 76.5 86 SW 1 G 7 30.18 1022.0 0.00 483 0.0 0.011
20 09:00 79.4 75.5 88 S 1 G 5 30.17 1021.8 0.00 227 0.0 0.006
20 08:00 77.4 73.6 77.4 72.9 88 S 1 G 7 30.17 1021.7 0.00 139 0.0 0.003
20 07:00 75.4 72.9 92 S 0 G 2 30.17 1021.7 0.00 97 0.0 0.001
20 06:00 73.3 71.2 93 S 1 G 10 30.15 1021.2 0.00 35 0.0 0.001
20 05:00 73.7 71.2 92 SSE 2 G 8 30.15 1021.0 0.00 0 0.0 0.001
20 04:00 75.0 72.2 91 S 2 G 12 30.15 1021.2 0.00 0 0.0 0.000
20 03:00 75.1 72.3 91 SSW 2 G 8 30.15 1021.1 0.00 0 0.0 0.000
20 02:00 74.1 71.6 81.0 74.1 92 S 0 G 4 30.15 1021.1 0.00 0 0.0 0.000
20 01:00 75.2 72.4 91 S 1 G 4 30.15 1021.1 0.00 0 0.0 0.000
20 00:00 75.4 72.6 91 SSE 0 G 7 30.16 1021.3 0.00 0 0.0 0.145
19 23:00 75.3 72.2 90 S 0 G 6 30.16 1021.3 0.00 0 0.0 0.144
19 22:00 77.8 73.3 86 S 1 G 10 30.16 1021.4 0.00 0 0.0 0.143
19 21:00 79.4 74.1 84 SE 0 G 12 30.15 1021.0 0.00 0 0.0 0.142
19 20:00 81.0 73.9 90.7 81.0 79 S 3 G 11 30.14 1020.7 0.00 16 0.0 0.140
19 19:00 83.9 74.7 74 S 2 G 9 30.13 1020.5 0.00 163 0.0 0.135
19 18:00 85.6 76.4 74 S 4 G 12 30.12 1020.0 0.00 348 0.0 0.127
19 17:00 88.1 77.9 72 SSE 1 G 10 30.12 1020.1 0.00 202 0.0 0.115
19 16:00 88.6 80.9 78 S 0 G 5 30.14 1020.6 0.00 151 0.0 0.107
19 15:00 89.4 81.2 77 S 0 G 6 30.15 1021.0 0.00 840 0.0 0.090
19 14:00 83.1 75.9 90.2 78.8 79 WSW 0 G 4 30.17 1021.7 0.00 360 0.0 0.083
19 13:00 89.0 78.8 72 S 2 G 10 30.16 1021.4 0.00 664 0.0 0.065
19 12:00 89.1 80.6 76 S 1 G 7 30.18 1021.9 0.00 816 0.0 0.044
19 11:00 87.8 80.5 79 S 1 G 8 30.18 1022.2 0.00 698 0.0 0.027
19 10:00 83.7 76.5 79 S 1 G 11 30.19 1022.4 0.00 520 0.0 0.015
19 09:00 80.1 75.2 85 SW 1 G 6 30.19 1022.4 0.00 209 0.0 0.009
19 08:00 79.0 74.5 79.1 71.4 86 S 3 G 14 30.19 1022.5 0.00 179 0.0 0.004
19 07:00 76.3 73.5 91 S 0 G 4 30.19 1022.3 0.00 123 0.0 0.001
19 06:00 72.5 70.7 94 S 0 G 3 30.17 1021.7 0.00 37 0.0 0.000
19 05:00 72.4 70.3 93 S 1 G 7 30.15 1021.1 0.00 0 0.0 0.000
19 04:00 71.5 69.7 94 S 2 G 6 30.14 1020.7 0.00 0 0.0 0.000
19 03:00 72.0 70.2 94 S 0 G 3 30.13 1020.5 0.00 0 0.0 0.000
19 02:00 72.2 70.4 82.5 71.8 94 S 0 G 4 30.13 1020.3 0.00 0 0.0 0.000
19 01:00 72.0 69.9 93 S 0 G 1 30.13 1020.4 0.00 0 0.0 0.000
19 00:00 72.6 70.1 92 S 0 G 2 30.12 1020.1 0.00 0 0.0 0.177
18 23:00 73.5 71.0 92 S 0 G 2 30.11 1019.7 0.00 0 0.0 0.177
18 22:00 74.9 72.1 91 S 0 G 1 30.11 1019.5 0.00 0 0.0 0.177
18 21:00 76.9 72.7 87 S 0 G 1 30.10 1019.2 0.00 0 0.0 0.177
18 20:00 82.5 75.7 91.1 82.5 80 S 0 G 1 30.09 1018.9 0.00 40 0.0 0.175
18 19:00 87.2 75.8 69 S 0 G 1 30.07 1018.5 0.00 142 0.0 0.170
18 18:00 89.8 76.0 64 WSW 4 G 9 30.07 1018.4 0.00 341 0.0 0.158
18 17:00 90.9 76.1 62 S 0 G 6 30.08 1018.7 0.00 531 0.0 0.141
18 16:00 89.7 75.9 64 S 3 G 8 30.09 1018.9 0.00 656 0.0 0.121
18 15:00 88.6 75.3 65 SW 4 G 9 30.09 1019.0 0.00 745 0.0 0.098
18 14:00 86.1 76.0 87.0 75.7 72 S 2 G 7 30.09 1019.1 0.00 287 0.0 0.081
18 13:00 85.5 74.6 70 SW 2 G 10 30.09 1019.1 0.00 446 0.0 0.064
18 12:00 86.8 75.0 68 SSE 2 G 12 30.10 1019.5 0.00 1011 0.0 0.045
18 11:00 84.3 75.5 75 SW 0 G 8 30.11 1019.7 0.00 490 0.0 0.029
18 10:00 82.8 73.3 73 S 1 G 11 30.12 1020.1 0.00 759 0.0 0.014
18 09:00 77.5 71.6 82 S 2 G 9 30.13 1020.2 0.00 260 0.0 0.005
18 08:00 75.7 70.2 75.7 67.1 83 S 3 G 9 30.12 1019.9 0.00 329 0.0 0.001
18 07:00 69.3 67.5 94 SSE 0 G 2 30.10 1019.2 0.00 70 0.0 0.000
18 06:00 67.2 65.1 93 SSE 0 G 2 30.08 1018.8 0.00 32 0.0 0.000
18 05:00 67.4 65.3 93 SSE 0 G 5 30.07 1018.2 0.00 0 0.0 0.000
18 04:00 69.0 65.9 90 S 1 G 4 30.04 1017.4 0.00 0 0.0 0.000
18 03:00 69.5 66.4 90 SSE 2 G 8 30.03 1016.9 0.00 0 0.0 0.000
18 02:00 68.2 65.8 77.5 68.2 92 S 0 G 4 30.03 1017.1 0.00 0 0.0 0.000
18 01:00 68.5 66.1 92 S 0 G 3 30.04 1017.2 0.00 0 0.0 0.000
18 00:00 69.8 66.4 89 S 1 G 4 30.03 1016.9 0.00 0 0.0 0.139
17 23:00 72.2 67.4 85 S 2 G 6 30.02 1016.6 0.00 0 0.0 0.138
17 22:00 73.0 67.5 83 SSW 0 G 6 30.01 1016.4 0.00 0 0.0 0.137
17 21:00 74.5 67.9 80 S 2 G 6 29.99 1015.6 0.00 0 0.0 0.136
17 20:00 77.5 69.0 83.5 77.5 75 S 0 G 8 29.99 1015.6 0.00 26 0.0 0.133

Data generated by WxSolution Version 1.9.2, Build 2023.03.05.


 
 
Current Radar Loop:

Copyright © WestfordWeather.net 2007-2024. All rights reserved.